Decoded Metar for VVCI (CATBI in VIET NAM) (IATA:N/A) | Meteo·Mobile Aviation Weather
aviador You're here:

VVCI Decoded Metar

CATBI in VIET NAM
Report Time2019-10-21 07:00:00
UTC Time2019-10-21 07:22:18
Flight Rules vfr VFR
Wind130° at 11 kt
W.Decomp.*RWY 07: 5.3 kt HW 9.6 kt RCW
Visibility9999 m
Phenomena:N/A
Clouds:Few 029 Hf
Expected CloudBase > 2,800 ft AGL from Temp-Dew spread
CeilingNone
Temp29°C (ISA +14)
Dew Point22°C (66% RH)
Heat Index32.0°C
QNH1011 hPa
Density Alt2,028 ft
Elevation5 ft
Report Wrong Elevation
Raw Report
METAR VVCI 210700Z 13011KT 9999 FEW029 29/22 Q1011 NOSIG=

Extra information for VVCI:More info

Social comments